Time;durP1;ratioP1;P1;durP2;ratioP2;P2;SDS_P1;SDS_P2;PMS_P1;PMS_P2;Temp;Humidity;BMP_temperature;BMP_pressure;BME280_temperature;BME280_humidity;BME280_pressure;Samples;Min_cycle;Max_cycle;Signal;HPM_P1;HPM_P2
2021/10/26 00:01:23;;;;;;;;;;;;;;;9.20;95.76;100577.53;5033570;28;19913;-82
2021/10/26 00:03:48;;;;;;;;;;;;;;;9.18;95.30;100583.09;5034148;28;19912;-83
2021/10/26 00:06:14;;;;;;;;;;;;;;;9.14;95.68;100576.38;5033897;28;19963;-81
2021/10/26 00:08:39;;;;;;;;;;;;;;;9.10;95.94;100579.56;5034083;28;19999;-83
2021/10/26 00:11:05;;;;;;;;;;;;;;;9.05;96.65;100572.06;5034230;28;19939;-82
2021/10/26 00:13:31;;;;;;;;;;;;;;;8.98;97.03;100566.53;5018119;28;19999;-82
2021/10/26 00:15:56;;;;;;;;;;;;;;;8.95;97.06;100563.34;5034197;28;20011;-82
2021/10/26 00:18:22;;;;;;;;;;;;;;;8.95;97.89;100560.69;5017905;28;19966;-82
2021/10/26 00:20:47;;;;;;;;;;;;;;;8.96;97.80;100556.97;5017499;28;19913;-82
2021/10/26 00:23:13;;;;;;;;;;;;;;;8.95;97.47;100558.81;5034005;28;19916;-82
2021/10/26 00:25:39;;;;;;;;;;;;;;;8.95;97.83;100549.94;5033843;28;19917;-82
2021/10/26 00:28:05;;;;;;;;;;;;;;;8.96;98.00;100543.56;5017548;28;19919;-83
2021/10/26 00:30:30;;;;;;;;;;;;;;;8.98;98.09;100546.94;5001346;28;20016;-82
2021/10/26 00:32:56;;;;;;;;;;;;;;;9.00;98.48;100534.19;5051732;28;20333;-81
2021/10/26 00:35:27;;;;;;;;;;;;;;;9.02;97.90;100533.00;5033896;28;19917;-83
2021/10/26 00:37:53;;;;;;;;;;;;;;;9.07;97.87;100520.91;5018080;28;19923;-82
2021/10/26 00:40:18;;;;;;;;;;;;;;;9.06;98.12;100520.09;5034039;28;19916;-82
2021/10/26 00:42:46;;;;;;;;;;;;;;;9.10;98.34;100524.09;5051665;28;19913;-83
2021/10/26 00:45:11;;;;;;;;;;;;;;;9.15;97.85;100515.53;5033715;28;19919;-82
2021/10/26 00:47:37;;;;;;;;;;;;;;;9.17;97.85;100525.06;5051553;28;19913;-83
2021/10/26 00:50:03;;;;;;;;;;;;;;;9.16;97.68;100504.63;5017648;28;19920;-82
2021/10/26 00:52:29;;;;;;;;;;;;;;;9.23;98.10;100518.19;5033321;28;20011;-81
2021/10/26 00:54:54;;;;;;;;;;;;;;;9.27;97.92;100514.16;5016939;28;20011;-81
2021/10/26 00:57:25;;;;;;;;;;;;;;;9.28;97.88;100514.97;5017152;28;19919;-82
2021/10/26 00:59:50;;;;;;;;;;;;;;;9.32;97.97;100513.63;5033969;28;19913;-82
2021/10/26 01:02:16;;;;;;;;;;;;;;;9.35;97.88;100513.28;5033423;28;19936;-80
2021/10/26 01:04:42;;;;;;;;;;;;;;;9.37;98.18;100509.41;5033405;28;19917;-84
2021/10/26 01:07:07;;;;;;;;;;;;;;;9.41;97.99;100515.25;5016874;28;20381;-83
2021/10/26 01:09:33;;;;;;;;;;;;;;;9.42;98.19;100496.31;5033700;28;19919;-81
2021/10/26 01:11:58;;;;;;;;;;;;;;;9.45;98.10;100512.06;5017268;28;20347;-80
2021/10/26 01:14:24;;;;;;;;;;;;;;;9.48;98.17;100502.84;5037051;28;19944;-83
2021/10/26 01:16:49;;;;;;;;;;;;;;;9.49;98.62;100493.75;5021077;28;19919;-81
2021/10/26 01:19:15;;;;;;;;;;;;;;;9.51;98.48;100491.75;5037354;28;19978;-82
2021/10/26 01:21:41;;;;;;;;;;;;;;;9.53;98.53;100497.78;5020944;28;19919;-83
2021/10/26 01:24:06;;;;;;;;;;;;;;;9.57;98.88;100482.16;5021091;28;19913;-82
2021/10/26 01:26:32;;;;;;;;;;;;;;;9.60;98.79;100485.31;5054990;28;19912;-82
2021/10/26 01:28:58;;;;;;;;;;;;;;;9.61;99.04;100481.63;5054832;28;19963;-83
2021/10/26 01:31:24;;;;;;;;;;;;;;;9.64;99.14;100488.50;5037499;28;19917;-80
2021/10/26 01:33:49;;;;;;;;;;;;;;;9.66;99.48;100489.16;5037187;28;19919;-82
2021/10/26 01:36:17;;;;;;;;;;;;;;;9.66;99.42;100487.31;5020481;28;19917;-84
2021/10/26 01:38:42;;;;;;;;;;;;;;;9.69;99.56;100484.25;5020544;28;19986;-81
2021/10/26 01:41:08;;;;;;;;;;;;;;;9.67;99.69;100491.66;5037156;28;20397;-81
2021/10/26 01:43:36;;;;;;;;;;;;;;;9.62;100.00;100483.28;5004404;28;19912;-82
2021/10/26 01:46:02;;;;;;;;;;;;;;;9.57;100.00;100482.97;5037096;28;19946;-81
2021/10/26 01:48:28;;;;;;;;;;;;;;;9.54;100.00;100475.28;5036874;28;20358;-81
2021/10/26 01:50:54;;;;;;;;;;;;;;;9.52;100.00;100474.63;5054270;28;19966;-83
2021/10/26 01:53:20;;;;;;;;;;;;;;;9.52;100.00;100471.94;5020242;28;19948;-81
2021/10/26 01:55:45;;;;;;;;;;;;;;;9.54;100.00;100469.09;5036857;28;19952;-81
2021/10/26 01:58:11;;;;;;;;;;;;;;;9.54;100.00;100459.19;5036674;28;19913;-81
2021/10/26 02:00:37;;;;;;;;;;;;;;;9.57;100.00;100466.03;5036574;28;19913;-81
2021/10/26 02:03:05;;;;;;;;;;;;;;;9.60;100.00;100455.78;5036373;28;20386;-83
2021/10/26 02:05:31;;;;;;;;;;;;;;;9.63;100.00;100465.31;5020085;28;19916;-81
2021/10/26 02:07:56;;;;;;;;;;;;;;;9.67;100.00;100458.59;5019755;28;19913;-81
2021/10/26 02:10:22;;;;;;;;;;;;;;;9.71;100.00;100451.03;5036568;28;19920;-82
2021/10/26 02:12:47;;;;;;;;;;;;;;;9.73;100.00;100455.19;5036124;28;20003;-81
2021/10/26 02:15:13;;;;;;;;;;;;;;;9.78;100.00;100449.31;5036618;28;19923;-83
2021/10/26 02:17:38;;;;;;;;;;;;;;;9.83;100.00;100446.91;5020127;28;20011;-81
2021/10/26 02:20:04;;;;;;;;;;;;;;;9.87;100.00;100451.75;5036106;28;19912;-83
2021/10/26 02:22:30;;;;;;;;;;;;;;;9.90;100.00;100454.09;5036195;28;19938;-82
2021/10/26 02:24:55;;;;;;;;;;;;;;;9.96;100.00;100451.69;5052694;28;20372;-83
2021/10/26 02:27:21;;;;;;;;;;;;;;;10.02;100.00;100450.97;5019952;28;19912;-80
2021/10/26 02:29:47;;;;;;;;;;;;;;;10.06;100.00;100450.44;5035774;28;19913;-80
2021/10/26 02:32:12;;;;;;;;;;;;;;;10.11;100.00;100448.06;5036038;28;19913;-83
2021/10/26 02:34:40;;;;;;;;;;;;;;;10.19;100.00;100454.34;5035626;28;19917;-80
2021/10/26 02:37:06;;;;;;;;;;;;;;;10.22;100.00;100437.91;5053915;28;19921;-82
2021/10/26 02:39:31;;;;;;;;;;;;;;;10.21;100.00;100442.41;5035697;28;20007;-82
2021/10/26 02:41:57;;;;;;;;;;;;;;;10.24;100.00;100446.59;5053470;28;20011;-82
2021/10/26 02:44:22;;;;;;;;;;;;;;;10.24;100.00;100438.53;5035804;28;20432;-79
2021/10/26 02:46:48;;;;;;;;;;;;;;;10.21;100.00;100442.41;5036005;28;19913;-80
2021/10/26 02:49:14;;;;;;;;;;;;;;;10.20;100.00;100446.13;5035297;28;19916;-81
2021/10/26 02:51:40;;;;;;;;;;;;;;;10.19;100.00;100444.47;5036034;28;20107;-82
2021/10/26 02:54:06;;;;;;;;;;;;;;;10.18;100.00;100441.94;5002954;28;19920;-81
2021/10/26 02:56:31;;;;;;;;;;;;;;;10.19;100.00;100443.59;5035637;28;19919;-82
2021/10/26 02:58:57;;;;;;;;;;;;;;;10.19;100.00;100443.59;5035302;28;19913;-81
2021/10/26 03:01:23;;;;;;;;;;;;;;;10.20;100.00;100445.28;5053468;28;19916;-79
2021/10/26 03:03:51;;;;;;;;;;;;;;;10.20;100.00;100439.94;5052805;28;19920;-83
2021/10/26 03:06:16;;;;;;;;;;;;;;;10.21;100.00;100455.00;5035783;28;19971;-82
2021/10/26 03:08:42;;;;;;;;;;;;;;;10.22;100.00;100446.78;5035521;28;19947;-83
2021/10/26 03:11:07;;;;;;;;;;;;;;;10.23;100.00;100453.00;5053131;28;19912;-82
2021/10/26 03:13:33;;;;;;;;;;;;;;;10.23;100.00;100456.50;5052917;28;20285;-83
2021/10/26 03:15:59;;;;;;;;;;;;;;;10.25;100.00;100448.28;5035440;28;19924;-81
2021/10/26 03:18:24;;;;;;;;;;;;;;;10.25;100.00;100453.66;5018608;28;19920;-80
2021/10/26 03:20:50;;;;;;;;;;;;;;;10.27;100.00;100446.25;5034814;28;19913;-80
2021/10/26 03:23:16;;;;;;;;;;;;;;;10.29;100.00;100444.22;5035329;28;20015;-83
2021/10/26 03:25:42;;;;;;;;;;;;;;;10.32;100.00;100441.19;5018422;28;19978;-81
2021/10/26 03:28:08;;;;;;;;;;;;;;;10.34;100.00;100428.41;5035010;28;19917;-83
2021/10/26 03:30:34;;;;;;;;;;;;;;;10.38;100.00;100429.72;5018661;28;19916;-82
2021/10/26 03:32:59;;;;;;;;;;;;;;;10.41;100.00;100431.19;5034795;28;19957;-83
2021/10/26 03:35:25;;;;;;;;;;;;;;;10.43;100.00;100424.63;5034793;28;19923;-83
2021/10/26 03:37:50;;;;;;;;;;;;;;;10.47;100.00;100428.59;5018728;28;20020;-82
2021/10/26 03:40:16;;;;;;;;;;;;;;;10.51;100.00;100427.22;5034961;28;19913;-83
2021/10/26 03:42:41;;;;;;;;;;;;;;;10.56;100.00;100432.91;5034694;28;19919;-83
2021/10/26 03:45:07;;;;;;;;;;;;;;;10.63;100.00;100438.34;5034504;28;19913;-80
2021/10/26 03:47:38;;;;;;;;;;;;;;;10.71;100.00;100429.38;5034870;28;19913;-83
2021/10/26 03:50:04;;;;;;;;;;;;;;;10.88;100.00;100425.50;5034467;28;20362;-80
2021/10/26 03:52:30;;;;;;;;;;;;;;;11.05;100.00;100420.72;5034731;28;19920;-83
2021/10/26 03:54:56;;;;;;;;;;;;;;;11.26;100.00;100419.13;5017730;28;20403;-84
2021/10/26 03:57:22;;;;;;;;;;;;;;;11.42;100.00;100413.53;5034527;28;19912;-83
2021/10/26 03:59:47;;;;;;;;;;;;;;;11.52;100.00;100418.63;5017785;28;19912;-80
2021/10/26 04:02:20;;;;;;;;;;;;;;;11.61;100.00;100412.91;5017542;28;19924;-83
2021/10/26 04:04:46;;;;;;;;;;;;;;;11.69;100.00;100411.94;5002539;28;19916;-83
2021/10/26 04:07:11;;;;;;;;;;;;;;;11.78;100.00;100418.91;5001689;28;20270;-82
2021/10/26 04:12:24;;;;;;;;;;;;;;;11.86;100.00;100410.72;5018666;28;19974;-81
2021/10/26 04:14:50;;;;;;;;;;;;;;;11.95;100.00;100413.28;5034184;28;19974;-80
2021/10/26 04:17:15;;;;;;;;;;;;;;;12.01;100.00;100418.75;5051930;28;19918;-83
2021/10/26 04:19:41;;;;;;;;;;;;;;;12.05;100.00;100422.69;5034104;28;19959;-82
2021/10/26 04:22:07;;;;;;;;;;;;;;;12.11;100.00;100426.47;5033904;28;19983;-81
2021/10/26 04:24:33;;;;;;;;;;;;;;;12.15;100.00;100426.94;5034435;28;19962;-82
2021/10/26 04:26:58;;;;;;;;;;;;;;;12.20;100.00;100419.06;5017396;28;20324;-82
2021/10/26 04:29:23;;;;;;;;;;;;;;;12.22;100.00;100420.53;5051511;28;20332;-83
2021/10/26 04:31:49;;;;;;;;;;;;;;;12.27;100.00;100423.50;5017722;28;19973;-81
2021/10/26 04:34:14;;;;;;;;;;;;;;;12.30;100.00;100422.28;5017820;28;20366;-82
2021/10/26 04:36:40;;;;;;;;;;;;;;;12.34;100.00;100417.34;5017706;28;19913;-83
2021/10/26 04:39:05;;;;;;;;;;;;;;;12.35;100.00;100414.44;5051736;28;20373;-83
2021/10/26 04:41:34;;;;;;;;;;;;;;;12.38;100.00;100413.22;5033685;28;19963;-83
2021/10/26 04:44:03;;;;;;;;;;;;;;;12.40;100.00;100409.28;5034416;28;19938;-83
2021/10/26 04:46:32;;;;;;;;;;;;;;;12.42;100.00;100415.31;5001354;28;19913;-83
2021/10/26 04:48:57;;;;;;;;;;;;;;;12.45;100.00;100416.78;5020073;28;19924;-84
2021/10/26 04:51:23;;;;;;;;;;;;;;;12.48;100.00;100419.09;5038138;28;19917;-84
2021/10/26 04:53:48;;;;;;;;;;;;;;;12.48;100.00;100419.09;5055880;28;19919;-82
2021/10/26 04:56:14;;;;;;;;;;;;;;;12.50;100.00;100411.66;5004639;28;19938;-85
2021/10/26 04:58:39;;;;;;;;;;;;;;;12.50;100.00;100412.47;5037721;28;20373;-82
2021/10/26 05:01:05;;;;;;;;;;;;;;;12.52;100.00;100417.69;5037599;28;19912;-83
2021/10/26 05:03:31;;;;;;;;;;;;;;;12.53;100.00;100412.06;5038038;28;19916;-82
2021/10/26 05:05:57;;;;;;;;;;;;;;;12.57;100.00;100411.69;5021252;28;19923;-81
2021/10/26 05:08:23;;;;;;;;;;;;;;;12.59;100.00;100407.75;5037504;28;19913;-83
2021/10/26 05:10:48;;;;;;;;;;;;;;;12.62;100.00;100407.38;5037681;28;20358;-83
2021/10/26 05:13:14;;;;;;;;;;;;;;;12.66;100.00;100400.53;5055099;28;19912;-81
2021/10/26 05:15:39;;;;;;;;;;;;;;;12.69;100.00;100404.72;5037395;28;20333;-83
2021/10/26 05:18:05;;;;;;;;;;;;;;;12.71;100.00;100398.09;5055011;28;19912;-83
2021/10/26 05:20:33;;;;;;;;;;;;;;;12.72;100.00;100410.53;5037598;28;19962;-83
2021/10/26 05:22:59;;;;;;;;;;;;;;;12.75;100.00;100410.16;5037710;28;20031;-83
2021/10/26 05:25:24;;;;;;;;;;;;;;;12.77;100.00;100413.47;5020944;28;19954;-83
2021/10/26 05:27:50;;;;;;;;;;;;;;;12.80;100.00;100406.03;5037124;28;20396;-83
2021/10/26 05:30:15;;;;;;;;;;;;;;;12.79;100.00;100410.59;5037084;28;19938;-83
2021/10/26 05:32:41;;;;;;;;;;;;;;;12.80;100.00;100397.94;5020718;28;19913;-82
2021/10/26 05:35:07;;;;;;;;;;;;;;;12.80;100.00;100400.63;5037074;28;20405;-83
2021/10/26 05:37:33;;;;;;;;;;;;;;;12.80;100.00;100397.94;5020105;28;20290;-83
2021/10/26 05:39:58;;;;;;;;;;;;;;;12.81;100.00;100396.88;5036731;28;19921;-81
2021/10/26 05:42:24;;;;;;;;;;;;;;;12.82;100.00;100398.56;5036655;28;19913;-83
2021/10/26 05:44:50;;;;;;;;;;;;;;;12.81;100.00;100396.88;5036882;28;19913;-82
2021/10/26 05:47:15;;;;;;;;;;;;;;;12.83;100.00;100401.03;5054552;28;20000;-84
2021/10/26 05:49:41;;;;;;;;;;;;;;;12.83;100.00;100400.22;5020187;28;20439;-83
2021/10/26 05:52:06;;;;;;;;;;;;;;;12.83;100.00;100401.03;5036791;28;19970;-83
2021/10/26 05:54:32;;;;;;;;;;;;;;;12.84;100.00;100401.91;5036600;28;19917;-83
2021/10/26 05:56:57;;;;;;;;;;;;;;;12.81;100.00;100396.88;5036941;28;19991;-84
2021/10/26 05:59:23;;;;;;;;;;;;;;;12.80;100.00;100401.44;5054129;28;19956;-82
2021/10/26 06:01:49;;;;;;;;;;;;;;;12.80;100.00;100396.06;5036617;28;20015;-83
2021/10/26 06:04:15;;;;;;;;;;;;;;;12.79;100.00;100399.78;5036610;28;19913;-82
2021/10/26 06:06:40;;;;;;;;;;;;;;;12.79;100.00;100394.41;5054397;28;20332;-83
2021/10/26 06:09:06;;;;;;;;;;;;;;;12.80;100.00;100387.97;5036174;28;19959;-84
2021/10/26 06:11:32;;;;;;;;;;;;;;;12.80;100.00;100392.53;5004031;28;19913;-84
2021/10/26 06:14:02;;;;;;;;;;;;;;;12.81;100.00;100395.03;5036592;28;19919;-82
2021/10/26 06:16:29;;;;;;;;;;;;;;;12.80;100.00;100397.94;5020795;28;19912;-83
2021/10/26 06:18:54;;;;;;;;;;;;;;;12.80;100.00;100398.75;5019605;28;19970;-83
2021/10/26 06:21:20;;;;;;;;;;;;;;;12.81;100.00;100396.88;5036266;28;19912;-82
2021/10/26 06:23:45;;;;;;;;;;;;;;;12.83;100.00;100405.63;5019808;28;20088;-81
2021/10/26 06:26:11;;;;;;;;;;;;;;;12.85;100.00;100398.16;5019971;28;19959;-82
2021/10/26 06:28:37;;;;;;;;;;;;;;;12.85;100.00;100400.84;5035801;28;20374;-83
2021/10/26 06:31:03;;;;;;;;;;;;;;;12.86;100.00;100389.88;5019917;28;20391;-82
2021/10/26 06:33:28;;;;;;;;;;;;;;;12.91;100.00;100397.34;5035960;28;19912;-83
2021/10/26 06:35:54;;;;;;;;;;;;;;;12.95;100.00;100404.03;5036228;28;19919;-83
2021/10/26 06:38:19;;;;;;;;;;;;;;;12.97;100.00;100401.97;5035688;28;19917;-83
2021/10/26 06:40:45;;;;;;;;;;;;;;;12.95;100.00;100407.56;5053698;28;20293;-81
2021/10/26 06:43:11;;;;;;;;;;;;;;;12.94;100.00;100407.78;5053794;28;19913;-82
2021/10/26 06:45:36;;;;;;;;;;;;;;;12.95;100.00;100401.34;5035709;28;19982;-82
2021/10/26 06:48:02;;;;;;;;;;;;;;;12.95;100.00;100401.34;5019321;28;19920;-82
2021/10/26 06:50:27;;;;;;;;;;;;;;;12.95;100.00;100396.75;5035794;28;19919;-82
2021/10/26 06:52:52;;;;;;;;;;;;;;;12.95;100.00;100393.25;5035916;28;19913;-83
2021/10/26 06:55:19;;;;;;;;;;;;;;;12.95;100.00;100387.84;5035822;28;19912;-83
2021/10/26 06:57:49;;;;;;;;;;;;;;;12.95;100.00;100394.06;5035716;28;20358;-83
2021/10/26 07:00:15;;;;;;;;;;;;;;;13.00;100.00;100390.78;5053649;28;19913;-83
2021/10/26 07:03:02;;;;;;;;;;;;;;;13.04;100.00;100388.50;5035561;28;20293;-82
2021/10/26 07:05:28;;;;;;;;;;;;;;;13.01;100.00;100388.91;5018927;28;20000;-81
2021/10/26 07:07:54;;;;;;;;;;;;;;;13.03;100.00;100390.38;5035721;28;20012;-81
2021/10/26 07:10:19;;;;;;;;;;;;;;;13.00;100.00;100381.84;5018105;28;19913;-82
2021/10/26 07:12:47;;;;;;;;;;;;;;;12.97;100.00;100386.59;5019188;28;20362;-82
2021/10/26 07:15:13;;;;;;;;;;;;;;;12.95;100.00;100385.13;5035203;28;19913;-83
2021/10/26 07:17:40;;;;;;;;;;;;;;;12.95;100.00;100393.25;5035610;28;20374;-83
2021/10/26 07:20:07;;;;;;;;;;;;;;;12.95;100.00;100385.97;5018863;28;20461;-84
2021/10/26 07:22:33;;;;;;;;;;;;;;;12.99;100.00;100405.28;5052906;28;19935;-81
2021/10/26 07:25:03;;;;;;;;;;;;;;;13.03;100.00;100411.94;5002534;28;20346;-81
2021/10/26 07:27:29;;;;;;;;;;;;;;;13.02;100.00;100398.66;5019750;28;19924;-81
2021/10/26 07:29:54;;;;;;;;;;;;;;;13.03;100.00;100400.34;5052691;28;19912;-80
2021/10/26 07:32:20;;;;;;;;;;;;;;;13.07;100.00;100410.53;5035162;28;19913;-82
2021/10/26 07:34:46;;;;;;;;;;;;;;;13.10;100.00;100407.44;5018310;28;20032;-81
2021/10/26 07:37:12;;;;;;;;;;;;;;;13.12;100.00;100405.34;5035141;28;20077;-83
2021/10/26 07:39:46;;;;;;;;;;;;;;;13.15;100.00;100404.09;5018628;28;19913;-82
2021/10/26 07:42:13;;;;;;;;;;;;;;;13.14;100.00;100405.97;5019494;28;19916;-82
2021/10/26 07:44:38;;;;;;;;;;;;;;;13.18;100.00;100404.56;5018462;28;19913;-83
2021/10/26 07:47:04;;;;;;;;;;;;;;;13.21;100.00;100395.22;5034294;28;19917;-83
2021/10/26 07:49:29;;;;;;;;;;;;;;;13.23;100.00;100395.84;5034455;28;19912;-83
2021/10/26 07:51:55;;;;;;;;;;;;;;;13.26;100.00;100402.69;5001967;28;19919;-82
2021/10/26 07:54:23;;;;;;;;;;;;;;;13.28;100.00;100409.59;5052446;28;20444;-83
2021/10/26 07:56:49;;;;;;;;;;;;;;;13.31;100.00;100405.66;5034384;28;19955;-81
2021/10/26 07:59:14;;;;;;;;;;;;;;;13.34;100.00;100413.38;5001809;28;19956;-82
2021/10/26 08:01:40;;;;;;;;;;;;;;;13.37;100.00;100407.56;5034020;28;19912;-84
2021/10/26 08:04:06;;;;;;;;;;;;;;;13.39;100.00;100400.09;5034577;28;20420;-81
2021/10/26 08:06:32;;;;;;;;;;;;;;;13.40;100.00;100417.94;5017944;28;19924;-82
2021/10/26 08:08:57;;;;;;;;;;;;;;;13.42;100.00;100415.88;5017779;28;19986;-83
2021/10/26 08:11:24;;;;;;;;;;;;;;;13.44;100.00;100413.78;5034229;28;20267;-82
2021/10/26 08:13:50;;;;;;;;;;;;;;;13.48;100.00;100414.25;5034495;28;19912;-81
2021/10/26 08:16:15;;;;;;;;;;;;;;;13.52;100.00;100420.88;5017735;28;19920;-82
2021/10/26 08:18:44;;;;;;;;;;;;;;;13.56;100.00;100416.75;5001199;28;20285;-83
2021/10/26 08:21:12;;;;;;;;;;;;;;;13.58;99.95;100423.63;5017529;28;20308;-82
2021/10/26 08:23:40;;;;;;;;;;;;;;;13.60;99.85;100421.56;5051043;28;19982;-83
2021/10/26 08:26:07;;;;;;;;;;;;;;;13.60;99.74;100418.00;5017840;28;19924;-84
2021/10/26 08:28:34;;;;;;;;;;;;;;;13.61;99.65;100431.31;5017829;28;20381;-82
2021/10/26 08:36:44;;;;;;;;;;;;;;;13.70;99.31;100423.00;5000239;28;19913;-81
2021/10/26 08:39:10;;;;;;;;;;;;;;;13.72;99.16;100429.06;5034301;28;20298;-82
2021/10/26 08:41:35;;;;;;;;;;;;;;;13.75;98.93;100421.38;5017563;28;20381;-83
2021/10/26 08:44:01;;;;;;;;;;;;;;;13.81;98.55;100417.00;5017401;28;19916;-83
2021/10/26 08:46:27;;;;;;;;;;;;;;;13.83;98.45;100425.75;5033840;28;20355;-83
2021/10/26 08:48:53;;;;;;;;;;;;;;;13.84;98.30;100444.47;5017252;28;19919;-82
2021/10/26 08:51:22;;;;;;;;;;;;;;;13.87;98.21;100432.41;5033867;28;20396;-81
2021/10/26 08:53:48;;;;;;;;;;;;;;;13.95;97.72;100426.81;5033985;28;20281;-80
2021/10/26 08:56:13;;;;;;;;;;;;;;;14.01;97.26;100431.38;5051336;28;20004;-82
2021/10/26 08:58:39;;;;;;;;;;;;;;;14.03;96.91;100428.50;5001310;28;20266;-81
2021/10/26 09:01:07;;;;;;;;;;;;;;;14.05;96.73;100421.84;5017928;28;19999;-81
2021/10/26 09:03:35;;;;;;;;;;;;;;;14.06;96.54;100425.38;5017232;28;20397;-82
2021/10/26 09:06:01;;;;;;;;;;;;;;;14.13;96.10;100426.22;5033812;28;20326;-82
2021/10/26 09:08:27;;;;;;;;;;;;;;;14.16;95.81;100419.56;5033111;28;19920;-82
2021/10/26 09:10:53;;;;;;;;;;;;;;;14.16;95.83;100419.56;5017583;28;20027;-83
2021/10/26 09:19:28;;;;;;;;;;;;;;;14.43;94.22;100425.78;5036543;28;19920;-83
2021/10/26 09:22:04;;;;;;;;;;;;;;;14.43;93.92;100437.44;5051296;28;20358;-82
2021/10/26 09:24:30;;;;;;;;;;;;;;;14.41;94.09;100435.97;5016908;28;19959;-81
2021/10/26 09:26:55;;;;;;;;;;;;;;;14.42;93.85;100424.09;5033290;28;20333;-83
2021/10/26 09:29:27;;;;;;;;;;;;;;;14.42;93.88;100427.66;5050879;28;20006;-83
2021/10/26 09:31:52;;;;;;;;;;;;;;;14.52;93.43;100428.09;5033516;28;19920;-82
2021/10/26 09:34:18;;;;;;;;;;;;;;;14.60;92.80;100418.91;5034833;28;19913;-82
2021/10/26 09:36:48;;;;;;;;;;;;;;;14.66;92.53;100417.22;5020874;28;19917;-81
2021/10/26 09:39:15;;;;;;;;;;;;;;;14.70;92.18;100423.91;5036860;28;19956;-81
2021/10/26 09:41:50;;;;;;;;;;;;;;;14.73;91.93;100426.19;5020345;28;19920;-83
2021/10/26 09:44:16;;;;;;;;;;;;;;;14.77;91.68;100434.72;5054681;28;19920;-83
2021/10/26 09:46:50;;;;;;;;;;;;;;;14.83;91.40;100431.16;5020472;28;19959;-83
2021/10/26 09:49:26;;;;;;;;;;;;;;;14.92;90.86;100422.63;5054773;28;19919;-80
2021/10/26 09:52:27;;;;;;;;;;;;;;;14.98;90.25;100417.38;5021352;28;19924;-83
2021/10/26 09:57:45;;;;;;;;;;;;;;;15.07;90.05;100408.81;5020722;28;19938;-82
2021/10/26 10:00:11;;;;;;;;;;;;;;;15.13;89.64;100420.66;5037036;28;19917;-82
2021/10/26 10:02:37;;;;;;;;;;;;;;;15.17;89.52;100406.47;5020086;28;20393;-81
2021/10/26 10:05:03;;;;;;;;;;;;;;;15.27;88.85;100418.72;5020445;28;19916;-81
2021/10/26 10:07:31;;;;;;;;;;;;;;;15.33;88.41;100434.97;5036502;28;19917;-82
2021/10/26 10:09:57;;;;;;;;;;;;;;;15.39;88.05;100422.44;5019793;28;19999;-82
2021/10/26 10:12:26;;;;;;;;;;;;;;;15.42;87.91;100429.28;5020240;28;19932;-82
2021/10/26 10:14:53;;;;;;;;;;;;;;;15.44;87.66;100419.91;5036985;28;19952;-82
2021/10/26 10:17:20;;;;;;;;;;;;;;;15.60;86.76;100413.16;5004024;28;19913;-81
2021/10/26 10:19:46;;;;;;;;;;;;;;;15.73;85.78;100423.94;5036401;28;19940;-82
2021/10/26 10:22:11;;;;;;;;;;;;;;;15.82;85.24;100422.66;5020232;28;20336;-81
2021/10/26 10:24:40;;;;;;;;;;;;;;;15.88;84.90;100414.66;5036296;28;20016;-81
2021/10/26 10:27:06;;;;;;;;;;;;;;;15.95;84.17;100423.59;5019981;28;19912;-81
2021/10/26 10:29:32;;;;;;;;;;;;;;;15.96;84.01;100428.81;5019152;28;19974;-80
2021/10/26 10:31:57;;;;;;;;;;;;;;;15.95;83.70;100415.44;5054091;28;19917;-81
2021/10/26 10:34:23;;;;;;;;;;;;;;;15.90;83.64;100429.66;5019554;28;19916;-81
2021/10/26 10:36:52;;;;;;;;;;;;;;;15.82;83.61;100429.94;5035884;28;20267;-82
2021/10/26 10:39:22;;;;;;;;;;;;;;;15.76;83.91;100420.78;5019669;28;19916;-83
2021/10/26 10:41:48;;;;;;;;;;;;;;;15.69;84.21;100441.72;5037023;28;19917;-83
2021/10/26 10:44:20;;;;;;;;;;;;;;;15.66;84.19;100423.09;5019531;28;20434;-81
2021/10/26 10:46:47;;;;;;;;;;;;;;;15.73;83.75;100417.69;5052897;28;19939;-81
2021/10/26 10:49:18;;;;;;;;;;;;;;;15.76;83.58;100423.50;5035598;28;19920;-82
2021/10/26 10:51:54;;;;;;;;;;;;;;;15.81;83.33;100415.53;5035842;28;19917;-81
2021/10/26 10:54:35;;;;;;;;;;;;;;;15.88;82.62;100414.66;5019437;28;19916;-81
2021/10/26 10:57:19;;;;;;;;;;;;;;;15.93;82.22;100433.81;5019518;28;19947;-81
2021/10/26 10:59:45;;;;;;;;;;;;;;;15.96;81.75;100431.53;5035488;28;19922;-80
2021/10/26 11:02:22;;;;;;;;;;;;;;;16.02;81.24;100411.66;5018938;28;19920;-81
2021/10/26 11:04:48;;;;;;;;;;;;;;;16.06;81.09;100422.88;5002681;28;19964;-79
2021/10/26 11:07:13;;;;;;;;;;;;;;;16.12;81.02;100416.59;5018803;28;19959;-81
2021/10/26 11:09:42;;;;;;;;;;;;;;;16.20;80.60;100419.03;5018772;28;19912;-81
2021/10/26 11:12:16;;;;;;;;;;;;;;;16.30;80.22;100406.84;5035508;28;19944;-82
2021/10/26 11:14:55;;;;;;;;;;;;;;;16.35;79.81;100417.84;5035322;28;20359;-81
2021/10/26 11:17:33;;;;;;;;;;;;;;;16.38;79.72;100411.97;5018996;28;19920;-80
2021/10/26 11:20:03;;;;;;;;;;;;;;;16.51;78.93;100409.13;5053040;28;19947;-82
2021/10/26 11:22:47;;;;;;;;;;;;;;;16.61;78.27;100405.91;5035207;28;19970;-81
2021/10/26 11:25:20;;;;;;;;;;;;;;;16.82;76.99;100415.56;5052684;28;20436;-81
2021/10/26 11:27:45;;;;;;;;;;;;;;;16.81;76.21;100417.44;5018841;28;20019;-81
2021/10/26 11:30:29;;;;;;;;;;;;;;;17.03;75.43;100406.94;5052602;28;20401;-81
2021/10/26 11:33:12;;;;;;;;;;;;;;;17.14;74.59;100403.47;5052875;28;20435;-86
2021/10/26 11:35:41;;;;;;;;;;;;;;;17.38;73.69;100419.06;5052510;28;19920;-84
2021/10/26 11:38:14;;;;;;;;;;;;;;;17.46;73.59;100405.16;5052505;28;19937;-81
2021/10/26 11:41:12;;;;;;;;;;;;;;;17.49;72.89;100397.41;5018108;28;20342;-82
2021/10/26 11:43:41;;;;;;;;;;;;;;;17.66;72.25;100394.03;4991129;28;20287;-84
2021/10/26 11:46:07;;;;;;;;;;;;;;;17.86;71.67;100394.59;5018530;28;19913;-83
2021/10/26 11:48:42;;;;;;;;;;;;;;;17.96;71.15;100400.28;5018213;28;20285;-80
2021/10/26 11:51:26;;;;;;;;;;;;;;;17.87;70.55;100401.69;5034414;28;19916;-83
2021/10/26 11:53:52;;;;;;;;;;;;;;;17.79;70.76;100383.81;5052504;28;19921;-79
2021/10/26 11:56:37;;;;;;;;;;;;;;;17.71;70.16;100369.69;5034255;28;19913;-81
2021/10/26 11:59:07;;;;;;;;;;;;;;;17.74;69.98;100378.19;5018130;28;20042;-81
2021/10/26 12:01:37;;;;;;;;;;;;;;;17.93;69.13;100384.41;5001875;28;19913;-84
2021/10/26 12:04:05;;;;;;;;;;;;;;;18.14;68.73;100379.50;5052416;28;20003;-82
2021/10/26 12:06:34;;;;;;;;;;;;;;;18.82;67.07;100365.28;5034314;28;19917;-81
2021/10/26 12:09:00;;;;;;;;;;;;;;;19.67;64.08;100371.88;5018120;28;19919;-81
2021/10/26 12:11:34;;;;;;;7.90;3.53;;;;;;;20.49;60.34;100334.97;5017580;28;19912;-81
2021/10/26 12:14:30;;;;;;;16.50;4.45;;;;;;;20.39;60.46;100354.75;5033757;28;20083;-81
2021/10/26 12:17:24;;;;;;;21.75;5.18;;;;;;;20.06;60.53;100350.19;5033688;28;20104;-82
2021/10/26 12:20:03;;;;;;;13.82;4.25;;;;;;;20.40;59.81;100361.91;5001018;28;20036;-83
2021/10/26 12:22:54;;;;;;;18.30;5.65;;;;;;;19.87;60.79;100365.13;5051738;28;20447;-81
2021/10/26 12:25:40;;;;;;;19.33;6.30;;;;;;;19.18;63.38;100349.66;5040920;28;20051;-81
2021/10/26 12:28:07;;;;;;;6.78;3.30;;;;;;;18.62;65.74;100343.84;5017799;28;20031;-83
2021/10/26 12:30:40;;;;;;;14.27;5.22;;;;;;;18.28;67.11;100342.81;5033464;28;20112;-81
2021/10/26 12:33:28;;;;;;;13.00;4.35;;;;;;;18.05;68.27;100350.97;5051401;28;20463;-81
2021/10/26 12:35:59;;;;;;;15.80;5.03;;;;;;;17.70;69.45;100327.22;5017164;28;20024;-82
2021/10/26 12:38:37;;;;;;;16.27;4.70;;;;;;;17.51;70.43;100337.34;5033496;28;20043;-82
2021/10/26 12:41:10;;;;;;;21.55;4.88;;;;;;;17.28;71.74;100338.94;5016739;28;20052;-80
2021/10/26 12:43:35;;;;;;;19.63;4.05;;;;;;;17.11;72.82;100335.19;5001120;28;20040;-83
2021/10/26 12:46:17;;;;;;;29.15;6.28;;;;;;;16.94;74.19;100328.75;5017141;28;20051;-81
2021/10/26 12:48:43;;;;;;;21.00;4.13;;;;;;;16.81;74.74;100321.59;5033354;28;20037;-83